Time;durP1;ratioP1;P1;durP2;ratioP2;P2;SDS_P1;SDS_P2;PMS_P1;PMS_P2;Temp;Humidity;BMP_temperature;BMP_pressure;BME280_temperature;BME280_humidity;BME280_pressure;Samples;Min_cycle;Max_cycle;Signal;HPM_P1;HPM_P2
2023/01/15 00:00:38;;;;;;;;;;;;;;;21.63;35.31;101595.57;106029;1287;61732;-83
2023/01/15 00:03:05;;;;;;;;;;;;;;;21.63;35.20;101599.36;106035;1286;71814;-82
2023/01/15 00:05:30;;;;;;;;;;;;;;;21.63;35.18;101602.39;106134;1286;61321;-82
2023/01/15 00:07:56;;;;;;;;;;;;;;;21.63;35.34;101605.59;106173;1286;61352;-82
2023/01/15 00:10:22;;;;;;;;;;;;;;;21.64;35.20;101609.29;106054;1287;61362;-82
2023/01/15 00:12:47;;;;;;;;;;;;;;;21.64;35.25;101610.36;105985;1289;61303;-82
2023/01/15 00:15:13;;;;;;;;;;;;;;;21.64;35.18;101612.18;105984;1288;61278;-82
2023/01/15 00:17:41;;;;;;;;;;;;;;;21.64;35.20;101612.87;105929;1286;61753;-82
2023/01/15 00:20:07;;;;;;;;;;;;;;;21.65;35.19;101617.35;105743;1286;61288;-82
2023/01/15 00:22:32;;;;;;;;;;;;;;;21.65;35.16;101612.68;105664;1289;61089;-82
2023/01/15 00:27:44;;;;;;;;;;;;;;;21.64;35.14;101614.31;105550;1289;74539;-82
2023/01/15 00:30:11;;;;;;;;;;;;;;;21.64;35.12;101613.05;105571;1292;61419;-82
2023/01/15 00:32:37;;;;;;;;;;;;;;;21.65;35.27;101616.08;105569;1289;61175;-82
2023/01/15 00:35:03;;;;;;;;;;;;;;;21.64;35.15;101613.59;105535;1289;61404;-82
2023/01/15 00:37:30;;;;;;;;;;;;;;;21.65;35.27;101610.54;105442;1288;61386;-82
2023/01/15 00:39:56;;;;;;;;;;;;;;;21.65;35.19;101609.98;105533;1289;61154;-82
2023/01/15 00:42:21;;;;;;;;;;;;;;;21.65;35.13;101606.23;105677;1289;61237;-82
2023/01/15 00:44:47;;;;;;;;;;;;;;;21.64;35.28;101601.23;105529;1290;61269;-82
2023/01/15 00:47:14;;;;;;;;;;;;;;;21.65;35.29;101596.39;105667;1288;61271;-82
2023/01/15 00:49:40;;;;;;;;;;;;;;;21.64;35.03;101598.38;105496;1287;61344;-82
2023/01/15 00:52:06;;;;;;;;;;;;;;;21.64;35.19;101593.38;105451;1287;61374;-82
2023/01/15 00:54:32;;;;;;;;;;;;;;;21.64;35.27;101594.96;105561;1288;61358;-82
2023/01/15 00:56:58;;;;;;;;;;;;;;;21.64;35.27;101591.75;105562;1289;73395;-82
2023/01/15 00:59:24;;;;;;;;;;;;;;;21.64;35.20;101588.35;105555;1289;61356;-82
2023/01/15 01:01:49;;;;;;;;;;;;;;;21.64;35.30;101583.15;105907;1286;61128;-82
2023/01/15 01:04:15;;;;;;;;;;;;;;;21.65;35.16;101584.37;105957;1284;61409;-82
2023/01/15 01:06:41;;;;;;;;;;;;;;;21.64;35.21;101585.46;105972;1286;61262;-82
2023/01/15 01:09:07;;;;;;;;;;;;;;;21.64;35.18;101579.92;105913;1286;61453;-82
2023/01/15 01:11:33;;;;;;;;;;;;;;;21.64;35.28;101576.16;105821;1286;61385;-82
2023/01/15 01:14:01;;;;;;;;;;;;;;;21.65;35.23;101573.97;105942;1286;61246;-82
2023/01/15 01:16:29;;;;;;;;;;;;;;;21.65;35.18;101569.16;106007;1286;61285;-83
2023/01/15 01:18:55;;;;;;;;;;;;;;;21.65;35.20;101563.93;105917;1286;72447;-83
2023/01/15 01:21:21;;;;;;;;;;;;;;;21.65;35.24;101562.15;105992;1286;61359;-83
2023/01/15 01:23:54;;;;;;;;;;;;;;;21.65;35.21;101563.54;105945;1286;59982;-82
2023/01/15 01:26:20;;;;;;;;;;;;;;;21.64;35.19;101565.22;105994;1286;61007;-82
2023/01/15 01:28:49;;;;;;;;;;;;;;;21.65;35.19;101568.06;105714;1286;61261;-82
2023/01/15 01:31:14;;;;;;;;;;;;;;;21.65;35.19;101563.77;105898;1285;74414;-82
2023/01/15 01:33:40;;;;;;;;;;;;;;;21.65;35.12;101560.01;105993;1286;61296;-82
2023/01/15 01:36:05;;;;;;;;;;;;;;;21.65;35.26;101557.68;105777;1286;61343;-82
2023/01/15 01:38:31;;;;;;;;;;;;;;;21.64;35.16;101556.80;105924;1285;61260;-83
2023/01/15 01:40:57;;;;;;;;;;;;;;;21.64;35.11;101558.23;105966;1289;61249;-83
2023/01/15 01:43:23;;;;;;;;;;;;;;;21.64;35.25;101558.25;105925;1286;74257;-82
2023/01/15 01:45:49;;;;;;;;;;;;;;;21.65;35.14;101561.98;105752;1286;61193;-82
2023/01/15 01:48:15;;;;;;;;;;;;;;;21.64;35.05;101560.58;105916;1286;61316;-82
2023/01/15 01:50:40;;;;;;;;;;;;;;;21.65;35.27;101559.83;105919;1285;61233;-82
2023/01/15 01:53:07;;;;;;;;;;;;;;;21.64;35.26;101555.55;105926;1289;61301;-82
2023/01/15 01:55:33;;;;;;;;;;;;;;;21.65;35.23;101554.11;105977;1285;61151;-82
2023/01/15 01:57:59;;;;;;;;;;;;;;;21.65;35.27;101552.47;105946;1285;61231;-82
2023/01/15 02:00:25;;;;;;;;;;;;;;;21.65;35.30;101553.73;105909;1286;61272;-82
2023/01/15 02:02:51;;;;;;;;;;;;;;;21.65;35.24;101559.27;105957;1286;61282;-83
2023/01/15 02:05:22;;;;;;;;;;;;;;;21.65;35.28;101560.70;105908;1285;75642;-83
2023/01/15 02:07:47;;;;;;;;;;;;;;;21.65;35.28;101557.45;105924;1286;61262;-82
2023/01/15 02:10:14;;;;;;;;;;;;;;;21.65;35.19;101551.59;105742;1286;61262;-83
2023/01/15 02:12:39;;;;;;;;;;;;;;;21.65;35.26;101548.54;106012;1285;61281;-82
2023/01/15 02:15:05;;;;;;;;;;;;;;;21.64;35.10;101546.04;105715;1286;61292;-83
2023/01/15 02:17:32;;;;;;;;;;;;;;;21.64;35.33;101547.51;106045;1286;61439;-82
2023/01/15 02:20:08;;;;;;;;;;;;;;;21.65;35.25;101549.23;105757;1284;61346;-82
2023/01/15 02:22:54;;;;;;;;;;;;;;;21.65;35.33;101550.65;106003;1284;72528;-82
2023/01/15 02:25:28;;;;;;;;;;;;;;;21.66;35.30;101554.02;105919;1286;74591;-82
2023/01/15 02:27:55;;;;;;;;;;;;;;;21.66;35.29;101552.59;106072;1285;61252;-82
2023/01/15 02:30:25;;;;;;;;;;;;;;;21.66;35.21;101552.77;106096;1285;61289;-82
2023/01/15 02:32:52;;;;;;;;;;;;;;;21.66;35.30;101549.90;106205;1285;72434;-83
2023/01/15 02:35:20;;;;;;;;;;;;;;;21.66;35.15;101547.73;106243;1284;73503;-83
2023/01/15 02:37:48;;;;;;;;;;;;;;;21.66;35.27;101545.92;106176;1285;61250;-84
2023/01/15 02:40:14;;;;;;;;;;;;;;;21.67;35.31;101538.89;105915;1284;61231;-82
2023/01/15 02:42:39;;;;;;;;;;;;;;;21.67;35.33;101536.91;105776;1286;61302;-82
2023/01/15 02:45:05;;;;;;;;;;;;;;;21.68;35.26;101539.39;105901;1286;61225;-82
2023/01/15 02:47:32;;;;;;;;;;;;;;;21.67;35.29;101532.77;105770;1285;61225;-82
2023/01/15 02:49:59;;;;;;;;;;;;;;;21.68;35.40;101535.62;105907;1291;61263;-82
2023/01/15 02:52:26;;;;;;;;;;;;;;;21.68;35.26;101536.71;105957;1285;59799;-82
2023/01/15 02:54:52;;;;;;;;;;;;;;;21.68;35.25;101534.17;105924;1285;61368;-82
2023/01/15 02:57:18;;;;;;;;;;;;;;;21.68;35.31;101533.64;105917;1286;61291;-83
2023/01/15 02:59:44;;;;;;;;;;;;;;;21.68;35.31;101536.88;105757;1285;61237;-82
2023/01/15 03:02:10;;;;;;;;;;;;;;;21.68;35.18;101538.99;105729;1286;61219;-82
2023/01/15 03:04:47;;;;;;;;;;;;;;;21.68;35.27;101531.15;105719;1286;61250;-82
2023/01/15 03:07:12;;;;;;;;;;;;;;;21.68;35.22;101530.93;106010;1285;61165;-82
2023/01/15 03:09:38;;;;;;;;;;;;;;;21.68;35.31;101526.85;106006;1285;61314;-82
2023/01/15 03:12:05;;;;;;;;;;;;;;;21.68;35.24;101530.97;105928;1286;62073;-82
2023/01/15 03:14:50;;;;;;;;;;;;;;;21.68;35.17;101532.23;105984;1286;61122;-83
2023/01/15 03:17:17;;;;;;;;;;;;;;;21.67;35.29;101531.15;105684;1286;61854;-82
2023/01/15 03:19:46;;;;;;;;;;;;;;;21.68;35.33;101529.55;105945;1285;59904;-82
2023/01/15 03:22:16;;;;;;;;;;;;;;;21.67;35.29;101531.89;106007;1286;72438;-82
2023/01/15 03:24:48;;;;;;;;;;;;;;;21.67;35.17;101532.08;105967;1286;74288;-82
2023/01/15 03:27:16;;;;;;;;;;;;;;;21.68;35.28;101534.73;105998;1286;61276;-82
2023/01/15 03:29:42;;;;;;;;;;;;;;;21.67;35.37;101536.19;106022;1285;61137;-82
2023/01/15 03:32:10;;;;;;;;;;;;;;;21.68;35.29;101536.52;105743;1285;61381;-82
2023/01/15 03:34:41;;;;;;;;;;;;;;;21.68;35.34;101535.27;106003;1286;74497;-82
2023/01/15 03:37:06;;;;;;;;;;;;;;;21.67;35.16;101536.91;105932;1286;61408;-82
2023/01/15 03:39:32;;;;;;;;;;;;;;;21.67;35.32;101534.21;105931;1285;61385;-82
2023/01/15 03:42:14;;;;;;;;;;;;;;;21.67;35.24;101534.58;105764;1285;61272;-82
2023/01/15 03:44:42;;;;;;;;;;;;;;;21.68;35.19;101527.58;106019;1285;74537;-82
2023/01/15 03:47:33;;;;;;;;;;;;;;;21.68;35.26;101532.56;105881;1286;61163;-82
2023/01/15 03:50:02;;;;;;;;;;;;;;;21.68;35.21;101531.13;105477;1290;61140;-82
2023/01/15 03:52:36;;;;;;;;;;;;;;;21.68;35.23;101524.14;105499;1289;71865;-82
2023/01/15 03:55:01;;;;;;;;;;;;;;;21.68;35.26;101523.98;105488;1294;74557;-82
2023/01/15 03:57:29;;;;;;;;;;;;;;;21.68;35.06;101526.13;105421;1290;60110;-82
2023/01/15 04:00:18;;;;;;;;;;;;;;;21.68;35.29;101528.78;105234;1290;61334;-82
2023/01/15 04:02:43;;;;;;;;;;;;;;;21.69;35.28;101529.13;104839;1297;72599;-82
2023/01/15 04:05:11;;;;;;;;;;;;;;;21.69;35.22;101536.61;104841;1297;61366;-82
2023/01/15 04:07:36;;;;;;;;;;;;;;;21.69;35.26;101533.04;104854;1297;61375;-82
2023/01/15 04:10:02;;;;;;;;;;;;;;;21.69;35.18;101530.52;104873;1297;60275;-82
2023/01/15 04:12:31;;;;;;;;;;;;;;;21.69;35.25;101527.11;104850;1297;61294;-82
2023/01/15 04:14:57;;;;;;;;;;;;;;;21.69;35.18;101521.94;104849;1298;74062;-82
2023/01/15 04:17:22;;;;;;;;;;;;;;;21.69;35.24;101524.45;104862;1298;61259;-82
2023/01/15 04:19:48;;;;;;;;;;;;;;;21.69;35.24;101520.71;104872;1297;60079;-82
2023/01/15 04:22:25;;;;;;;;;;;;;;;21.69;35.36;101526.04;104769;1297;72469;-83
2023/01/15 04:24:50;;;;;;;;;;;;;;;21.69;35.22;101526.39;104520;1297;73168;-83
2023/01/15 04:27:16;;;;;;;;;;;;;;;21.69;35.22;101523.55;104866;1293;61318;-83
2023/01/15 04:29:41;;;;;;;;;;;;;;;21.69;35.21;101522.10;105159;1293;61267;-82
2023/01/15 04:32:07;;;;;;;;;;;;;;;21.69;35.25;101519.40;105012;1294;61289;-83
2023/01/15 04:34:34;;;;;;;;;;;;;;;21.70;35.28;101518.13;105259;1294;61299;-82
2023/01/15 04:37:00;;;;;;;;;;;;;;;21.70;35.29;101519.03;105105;1294;73729;-83
2023/01/15 04:39:25;;;;;;;;;;;;;;;21.69;35.27;101515.64;105250;1286;61975;-83
2023/01/15 04:44:35;;;;;;;;;;;;;;;21.70;35.02;101515.08;105917;1286;72384;-82
2023/01/15 04:47:01;;;;;;;;;;;;;;;21.70;35.25;101521.52;105934;1286;61231;-82
2023/01/15 04:49:26;;;;;;;;;;;;;;;21.70;35.19;101520.47;106036;1285;61301;-82
2023/01/15 04:51:51;;;;;;;;;;;;;;;21.70;35.26;101522.42;105972;1286;59385;-82
2023/01/15 04:54:17;;;;;;;;;;;;;;;21.70;35.30;101526.16;106114;1286;61236;-82
2023/01/15 04:56:44;;;;;;;;;;;;;;;21.70;35.25;101528.33;105808;1286;72546;-83
2023/01/15 04:59:10;;;;;;;;;;;;;;;21.70;35.38;101522.95;105994;1285;75181;-83
2023/01/15 05:01:35;;;;;;;;;;;;;;;21.70;35.36;101529.03;106069;1285;60660;-82
2023/01/15 05:04:01;;;;;;;;;;;;;;;21.70;35.27;101525.60;106230;1284;61293;-82
2023/01/15 05:06:26;;;;;;;;;;;;;;;21.71;35.36;101530.40;106090;1285;61240;-83
2023/01/15 05:08:52;;;;;;;;;;;;;;;21.71;35.33;101529.00;106033;1286;61288;-83
2023/01/15 05:11:18;;;;;;;;;;;;;;;21.71;35.31;101539.36;105895;1284;74478;-83
2023/01/15 05:13:43;;;;;;;;;;;;;;;21.71;35.24;101537.73;105932;1289;60153;-82
2023/01/15 05:16:10;;;;;;;;;;;;;;;21.71;35.21;101536.45;105928;1285;61330;-82
2023/01/15 05:18:35;;;;;;;;;;;;;;;21.72;35.36;101536.45;106048;1285;59994;-82
2023/01/15 05:21:01;;;;;;;;;;;;;;;21.72;35.28;101535.52;105926;1284;61471;-82
2023/01/15 05:23:26;;;;;;;;;;;;;;;21.72;35.37;101535.02;105943;1285;61273;-82
2023/01/15 05:25:52;;;;;;;;;;;;;;;21.72;35.44;101531.08;105904;1285;61203;-82
2023/01/15 05:28:18;;;;;;;;;;;;;;;21.71;35.27;101527.52;106008;1285;61358;-83
2023/01/15 05:30:43;;;;;;;;;;;;;;;21.71;35.39;101525.56;106031;1286;61297;-83
2023/01/15 05:33:09;;;;;;;;;;;;;;;21.72;35.34;101523.91;106010;1285;60027;-83
2023/01/15 05:35:34;;;;;;;;;;;;;;;21.72;35.43;101526.25;105957;1286;61381;-83
2023/01/15 05:38:02;;;;;;;;;;;;;;;21.71;35.32;101522.50;105964;1285;61123;-82
2023/01/15 05:40:28;;;;;;;;;;;;;;;21.72;35.29;101522.84;106004;1286;61103;-82
2023/01/15 05:42:54;;;;;;;;;;;;;;;21.72;35.40;101522.84;106031;1285;61285;-83
2023/01/15 05:45:19;;;;;;;;;;;;;;;21.72;35.49;101524.81;105917;1286;61959;-83
2023/01/15 05:47:45;;;;;;;;;;;;;;;21.71;35.31;101527.50;105957;1284;61355;-82
2023/01/15 05:50:10;;;;;;;;;;;;;;;21.72;35.20;101528.75;105954;1286;61336;-82
2023/01/15 05:52:37;;;;;;;;;;;;;;;21.72;35.30;101526.96;105919;1285;61262;-82
2023/01/15 05:55:03;;;;;;;;;;;;;;;21.72;35.30;101527.48;105926;1285;73551;-82
2023/01/15 05:57:31;;;;;;;;;;;;;;;21.72;35.40;101524.62;105912;1284;61301;-81
2023/01/15 05:59:57;;;;;;;;;;;;;;;21.71;35.38;101522.13;105940;1285;61267;-81
2023/01/15 06:02:22;;;;;;;;;;;;;;;21.72;35.43;101522.84;106001;1285;61361;-81
2023/01/15 06:04:50;;;;;;;;;;;;;;;21.72;35.41;101520.27;105760;1286;61385;-81
2023/01/15 06:07:17;;;;;;;;;;;;;;;21.72;35.41;101524.77;106020;1285;61277;-81
2023/01/15 06:09:43;;;;;;;;;;;;;;;21.72;35.33;101533.37;105996;1286;61285;-82
2023/01/15 06:12:09;;;;;;;;;;;;;;;21.72;35.34;101530.30;105724;1285;61425;-82
2023/01/15 06:14:34;;;;;;;;;;;;;;;21.72;35.37;101525.65;106041;1286;61245;-82
2023/01/15 06:17:00;;;;;;;;;;;;;;;21.72;35.35;101530.66;106018;1288;61300;-82
2023/01/15 06:19:25;;;;;;;;;;;;;;;21.72;35.31;101535.16;106070;1285;61838;-82
2023/01/15 06:21:51;;;;;;;;;;;;;;;21.72;35.27;101539.42;105909;1285;61177;-82
2023/01/15 06:24:18;;;;;;;;;;;;;;;21.72;35.40;101536.41;106046;1285;61269;-82
2023/01/15 06:26:44;;;;;;;;;;;;;;;21.72;35.44;101537.27;105919;1285;73249;-83
2023/01/15 06:29:10;;;;;;;;;;;;;;;21.73;35.38;101536.75;105911;1290;61355;-82
2023/01/15 06:31:35;;;;;;;;;;;;;;;21.73;35.35;101538.71;106020;1285;61284;-82
2023/01/15 06:34:01;;;;;;;;;;;;;;;21.73;35.39;101534.23;105813;1286;61455;-82
2023/01/15 06:36:26;;;;;;;;;;;;;;;21.73;35.44;101534.92;105972;1285;61253;-82
2023/01/15 06:38:52;;;;;;;;;;;;;;;21.73;35.26;101530.77;105736;1285;72360;-82
2023/01/15 06:49:32;;;;;;;;;;;;;;;21.74;35.37;101532.89;105992;1285;72631;-82
2023/01/15 06:51:58;;;;;;;;;;;;;;;21.74;35.34;101537.90;105896;1285;61334;-82
2023/01/15 06:54:23;;;;;;;;;;;;;;;21.74;35.48;101535.73;105710;1286;61323;-82
2023/01/15 06:56:49;;;;;;;;;;;;;;;21.74;35.33;101537.36;105939;1286;61356;-82
2023/01/15 06:59:15;;;;;;;;;;;;;;;21.75;35.45;101539.11;105997;1285;61288;-82
2023/01/15 07:01:47;;;;;;;;;;;;;;;21.75;35.34;101533.35;106001;1286;61281;-82
2023/01/15 07:04:13;;;;;;;;;;;;;;;21.75;35.37;101534.60;106007;1285;61478;-82
2023/01/15 07:06:39;;;;;;;;;;;;;;;21.75;35.41;101538.55;106028;1285;61263;-82
2023/01/15 07:09:05;;;;;;;;;;;;;;;21.75;35.39;101537.48;105941;1286;59744;-82
2023/01/15 07:11:30;;;;;;;;;;;;;;;21.76;35.41;101540.50;105943;1286;61211;-82
2023/01/15 07:14:04;;;;;;;;;;;;;;;21.76;35.45;101543.52;105985;1286;61252;-82
2023/01/15 07:16:36;;;;;;;;;;;;;;;21.76;35.44;101545.14;106054;1285;61186;-82
2023/01/15 07:19:02;;;;;;;;;;;;;;;21.76;35.46;101543.67;105945;1285;61196;-82
2023/01/15 07:21:28;;;;;;;;;;;;;;;21.77;35.26;101540.06;105977;1285;61244;-82
2023/01/15 07:23:53;;;;;;;;;;;;;;;21.77;35.42;101540.06;105972;1284;61218;-82
2023/01/15 07:26:19;;;;;;;;;;;;;;;21.78;35.51;101542.52;106103;1285;61234;-83
2023/01/15 07:28:44;;;;;;;;;;;;;;;21.78;35.41;101536.80;106138;1286;61320;-82
2023/01/15 07:31:10;;;;;;;;;;;;;;;21.79;35.25;101536.39;106202;1286;59292;-82
2023/01/15 07:33:35;;;;;;;;;;;;;;;21.79;35.41;101537.10;106257;1285;61247;-82
2023/01/15 07:36:01;;;;;;;;;;;;;;;21.80;35.48;101535.96;106190;1286;61281;-82
2023/01/15 07:38:27;;;;;;;;;;;;;;;21.80;35.42;101535.92;105963;1286;61320;-82
2023/01/15 07:51:53;;;;;;;;;;;;;;;21.82;35.30;101540.69;105950;1286;61217;-83
2023/01/15 07:54:18;;;;;;;;;;;;;;;21.82;35.36;101539.20;105923;1290;59272;-83
2023/01/15 07:56:44;;;;;;;;;;;;;;;21.82;35.27;101541.16;105948;1286;61362;-83
2023/01/15 07:59:10;;;;;;;;;;;;;;;21.82;35.37;101536.20;106037;1285;59346;-82
2023/01/15 08:01:36;;;;;;;;;;;;;;;21.82;35.39;101540.48;105968;1284;59343;-82
2023/01/15 08:04:02;;;;;;;;;;;;;;;21.82;35.35;101537.06;106067;1285;61289;-82
2023/01/15 08:06:28;;;;;;;;;;;;;;;21.82;35.40;101537.06;105936;1286;72421;-82
2023/01/15 08:08:55;;;;;;;;;;;;;;;21.83;35.41;101539.16;105954;1286;61326;-82
2023/01/15 08:16:52;;;;;;;;;;;;;;;21.83;35.33;101544.00;106003;1285;73923;-83
2023/01/15 08:19:17;;;;;;;;;;;;;;;21.83;35.38;101540.58;105766;1286;61356;-83
2023/01/15 08:21:43;;;;;;;;;;;;;;;21.83;35.33;101537.54;105923;1286;61334;-83
2023/01/15 08:24:09;;;;;;;;;;;;;;;21.83;35.42;101538.23;105853;1286;61604;-82
2023/01/15 08:26:35;;;;;;;;;;;;;;;21.84;35.39;101541.27;105900;1286;61394;-82
2023/01/15 08:29:00;;;;;;;;;;;;;;;21.84;35.40;101538.74;104690;1286;1878980;-82
2023/01/15 08:31:27;;;;;;;;;;;;;;;21.84;35.34;101539.80;106036;1285;75995;-83
2023/01/15 08:33:52;;;;;;;;;;;;;;;21.84;35.33;101535.14;106002;1285;61240;-82
2023/01/15 08:36:18;;;;;;;;;;;;;;;21.84;35.33;101537.84;105972;1286;61292;-82
2023/01/15 08:38:47;;;;;;;;;;;;;;;21.84;35.33;101541.59;105946;1284;61368;-82
2023/01/15 08:41:12;;;;;;;;;;;;;;;21.84;35.28;101546.42;105993;1285;74486;-82
2023/01/15 08:43:38;;;;;;;;;;;;;;;21.84;35.44;101541.77;105954;1284;60094;-82
2023/01/15 08:46:05;;;;;;;;;;;;;;;21.85;35.36;101538.11;106035;1286;61364;-82
2023/01/15 08:48:30;;;;;;;;;;;;;;;21.85;35.26;101536.37;105960;1286;61238;-82
2023/01/15 08:50:56;;;;;;;;;;;;;;;21.85;35.35;101539.91;105753;1286;61303;-82
2023/01/15 08:53:23;;;;;;;;;;;;;;;21.85;35.18;101541.19;106028;1285;61273;-82
2023/01/15 08:55:48;;;;;;;;;;;;;;;21.85;35.18;101538.52;105932;1284;61097;-82
2023/01/15 08:58:14;;;;;;;;;;;;;;;21.85;35.33;101535.79;106060;1286;61364;-82
2023/01/15 09:00:39;;;;;;;;;;;;;;;21.85;35.26;101530.97;105994;1288;72310;-82
2023/01/15 09:03:05;;;;;;;;;;;;;;;21.85;35.29;101530.23;105905;1286;61759;-82
2023/01/15 09:05:30;;;;;;;;;;;;;;;21.85;35.27;101526.27;105942;1286;61248;-82
2023/01/15 09:07:56;;;;;;;;;;;;;;;21.85;35.35;101521.80;105913;1286;61247;-82
2023/01/15 09:10:21;;;;;;;;;;;;;;;21.86;35.30;101521.41;105979;1286;61314;-82
2023/01/15 09:12:47;;;;;;;;;;;;;;;21.86;35.24;101522.31;106008;1285;73519;-82
2023/01/15 09:15:12;;;;;;;;;;;;;;;21.86;35.22;101518.16;106032;1285;61266;-83
2023/01/15 09:17:39;;;;;;;;;;;;;;;21.86;35.19;101514.94;105932;1285;61428;-82
2023/01/15 09:20:09;;;;;;;;;;;;;;;21.86;35.23;101505.98;105917;1289;61362;-82
2023/01/15 09:22:35;;;;;;;;;;;;;;;21.87;35.29;101507.57;105936;1285;72530;-82
2023/01/15 09:25:00;;;;;;;;;;;;;;;21.87;35.22;101505.39;105990;1286;61336;-82
2023/01/15 09:27:26;;;;;;;;;;;;;;;21.87;35.23;101501.82;105957;1286;61300;-82
2023/01/15 09:29:52;;;;;;;;;;;;;;;21.87;35.22;101498.20;105935;1284;61340;-82
2023/01/15 09:32:17;;;;;;;;;;;;;;;21.88;35.19;101496.91;106002;1286;61243;-82
2023/01/15 09:34:43;;;;;;;;;;;;;;;21.87;35.06;101489.61;105891;1285;73605;-82
2023/01/15 09:37:08;;;;;;;;;;;;;;;21.88;35.04;101490.47;105969;1285;61330;-82
2023/01/15 09:39:35;;;;;;;;;;;;;;;21.88;35.16;101483.66;105962;1286;61242;-82
2023/01/15 09:42:25;;;;;;;;;;;;;;;21.88;35.19;101480.44;105966;1286;61262;-82
2023/01/15 09:45:05;;;;;;;;;;;;;;;21.88;35.15;101476.84;105203;1294;72498;-82
2023/01/15 09:47:46;;;;;;;;;;;;;;;21.88;35.20;101475.76;105233;1293;73478;-81
2023/01/15 09:50:17;;;;;;;;;;;;;;;21.88;35.18;101471.08;105183;1292;61389;-81
2023/01/15 09:52:49;;;;;;;;;;;;;;;21.88;35.21;101470.71;105238;1294;61280;-81
2023/01/15 09:55:23;;;;;;;;;;;;;;;21.88;35.16;101464.27;105258;1293;71621;-83
2023/01/15 09:57:49;;;;;;;;;;;;;;;21.88;35.14;101458.71;105305;1293;74568;-82
2023/01/15 10:00:18;;;;;;;;;;;;;;;21.89;35.15;101453.86;105267;1293;61221;-82
2023/01/15 10:02:51;;;;;;;;;;;;;;;21.88;35.14;101450.84;105263;1292;61320;-82
2023/01/15 10:05:18;;;;;;;;;;;;;;;21.89;35.17;101450.42;105273;1294;72658;-83
2023/01/15 10:07:48;;;;;;;;;;;;;;;21.89;35.26;101451.84;105228;1294;75577;-83
2023/01/15 10:10:16;;;;;;;;;;;;;;;21.89;35.16;101446.30;105232;1292;61347;-83
2023/01/15 10:12:43;;;;;;;;;;;;;;;21.88;35.15;101440.79;105200;1294;61338;-82
2023/01/15 10:15:18;;;;;;;;;;;;;;;21.89;35.14;101435.77;105189;1293;73555;-82
2023/01/15 10:17:45;;;;;;;;;;;;;;;21.89;35.08;101430.39;105208;1293;74677;-82
2023/01/15 10:20:31;;;;;;;;;;;;;;;21.89;35.12;101430.02;105121;1293;61475;-82
2023/01/15 10:23:08;;;;;;;;;;;;;;;21.88;34.96;101425.95;105659;1286;61305;-82
2023/01/15 10:25:40;;;;;;;;;;;;;;;21.88;35.25;101424.50;106005;1286;72536;-83
2023/01/15 10:28:11;;;;;;;;;;;;;;;21.88;35.02;101422.55;105954;1284;75345;-83
2023/01/15 10:30:36;;;;;;;;;;;;;;;21.87;35.00;101414.34;105962;1285;61994;-82
2023/01/15 10:33:08;;;;;;;;;;;;;;;21.88;35.22;101410.52;106017;1284;59285;-81
2023/01/15 10:35:37;;;;;;;;;;;;;;;21.88;35.02;101407.15;105943;1285;73492;-83
2023/01/15 10:38:18;;;;;;;;;;;;;;;21.88;35.08;101404.23;105932;1285;75442;-83
2023/01/15 10:41:02;;;;;;;;;;;;;;;21.87;35.04;101398.36;105951;1286;61486;-83
2023/01/15 10:43:35;;;;;;;;;;;;;;;21.87;35.17;101396.08;105962;1286;61382;-83
2023/01/15 10:46:02;;;;;;;;;;;;;;;21.87;35.11;101390.91;105995;1286;72226;-83
2023/01/15 10:48:37;;;;;;;;;;;;;;;21.87;35.14;101388.39;105955;1284;74379;-83
2023/01/15 10:51:05;;;;;;;;;;;;;;;21.86;35.09;101386.45;105986;1285;61221;-83
2023/01/15 10:53:50;;;;;;;;;;;;;;;21.87;35.13;101383.00;106024;1286;61267;-82
2023/01/15 10:56:20;;;;;;;;;;;;;;;21.87;34.96;101382.27;105954;1285;73334;-82
2023/01/15 10:58:48;;;;;;;;;;;;;;;21.87;34.91;101374.59;105988;1286;74419;-82
2023/01/15 11:01:18;;;;;;;;;;;;;;;21.87;35.01;101371.34;105963;1286;61282;-82
2023/01/15 11:03:44;;;;;;;;;;;;;;;21.87;34.93;101366.67;105990;1285;61160;-82
2023/01/15 11:06:16;;;;;;;;;;;;;;;21.88;34.97;101361.45;106015;1284;61329;-82
2023/01/15 11:08:43;;;;;;;;;;;;;;;21.88;35.04;101359.30;105908;1285;75500;-82
2023/01/15 11:19:36;;;;;;;;;;;;;;;21.87;35.06;101341.05;105928;1285;75232;-83
2023/01/15 11:22:18;;;;;;;;;;;;;;;21.89;35.01;101336.14;105936;1285;61441;-83
2023/01/15 11:24:49;;;;;;;;;;;;;;;21.88;35.01;101332.05;106013;1286;61093;-82
2023/01/15 11:27:25;;;;;;;;;;;;;;;21.88;34.88;101330.23;105995;1285;72508;-83
2023/01/15 11:29:51;;;;;;;;;;;;;;;21.88;34.89;101327.19;105987;1284;74633;-83
2023/01/15 11:32:33;;;;;;;;;;;;;;;21.89;34.97;101324.66;105941;1286;61647;-82
2023/01/15 11:35:01;;;;;;;;;;;;;;;21.89;35.01;101321.08;106007;1286;61276;-82
2023/01/15 11:37:26;;;;;;;;;;;;;;;21.88;34.91;101318.92;105986;1286;73857;-82
2023/01/15 11:39:56;;;;;;;;;;;;;;;21.89;34.87;101314.59;105991;1290;60111;-82
2023/01/15 11:50:56;;;;;;;;;;;;;;;21.90;34.96;101305.73;105978;1286;75323;-82
2023/01/15 11:53:31;;;;;;;;;;;;;;;21.91;34.95;101302.66;105988;1286;61106;-82
2023/01/15 11:56:03;;;;;;;;;;;;;;;21.91;34.91;101302.13;106009;1286;61167;-82
2023/01/15 11:58:33;;;;;;;;;;;;;;;21.91;34.85;101301.73;105936;1285;73557;-82
2023/01/15 12:00:59;;;;;;;;;;;;;;;21.92;34.84;101297.23;105976;1285;74294;-82
2023/01/15 12:03:26;;;;;;;;;;;;;;;21.92;34.84;101293.83;105942;1286;61266;-82
2023/01/15 12:05:57;;;;;;;;;;;;;;;21.91;34.78;101288.47;105989;1285;60565;-83
2023/01/15 12:08:35;;;;;;;;;;;;;;;21.91;34.90;101286.86;106000;1286;73444;-83
2023/01/15 12:11:13;;;;;;;;;;;;;;;21.91;34.84;101284.55;105985;1285;75428;-83
2023/01/15 12:13:51;;;;;;;;;;;;;;;21.91;34.84;101280.05;105996;1284;61162;-83
2023/01/15 12:16:29;;;;;;;;;;;;;;;21.91;34.80;101279.88;106049;1285;61273;-83
2023/01/15 12:19:15;;;;;;;;;;;;;;;21.91;34.85;101278.42;106031;1286;72551;-82
2023/01/15 12:21:50;;;;;;;;;;;;;;;21.91;34.84;101272.69;105482;1294;74565;-82
2023/01/15 12:24:48;;;;;;;;;;;;;;;21.92;34.91;101270.15;105463;1290;61276;-83
2023/01/15 12:27:16;;;;;;;;;;;;;;;21.92;34.78;101268.67;105269;1291;61362;-83
2023/01/15 12:29:50;;;;;;;;;;;;;;;21.92;34.94;101266.34;105536;1291;71584;-83
2023/01/15 12:32:16;;;;;;;;;;;;;;;21.93;34.86;101264.35;105597;1292;75479;-83
2023/01/15 12:34:48;;;;;;;;;;;;;;;21.94;34.83;101264.10;105534;1291;59985;-83
2023/01/15 12:37:26;;;;;;;;;;;;;;;21.94;34.93;101263.56;105275;1297;61240;-83
2023/01/15 12:39:57;;;;;;;;;;;;;;;21.95;34.81;101263.53;105354;1291;73381;-83
2023/01/15 12:45:08;;;;;;;;;;;;;;;21.95;34.72;101263.69;105404;1291;61270;-82
2023/01/15 12:47:39;;;;;;;;;;;;;;;21.95;34.82;101264.20;105247;1290;61347;-82
2023/01/15 12:50:31;;;;;;;;;;;;;;;21.95;34.72;101264.93;105372;1291;73389;-82
2023/01/15 12:53:17;;;;;;;;;;;;;;;21.95;34.80;101258.66;105383;1290;74543;-83
2023/01/15 12:55:52;;;;;;;;;;;;;;;21.95;34.84;101256.33;105325;1292;61122;-82
2023/01/15 12:58:20;;;;;;;;;;;;;;;21.95;34.64;101250.75;105440;1285;60462;-82
2023/01/15 13:00:45;;;;;;;;;;;;;;;21.95;34.79;101252.38;105967;1286;73570;-82
2023/01/15 13:03:16;;;;;;;;;;;;;;;21.96;34.79;101253.77;105926;1284;61353;-82
2023/01/15 13:05:46;;;;;;;;;;;;;;;21.96;34.72;101251.79;105987;1285;61141;-82
2023/01/15 13:08:15;;;;;;;;;;;;;;;21.96;34.77;101254.82;106028;1286;61170;-82
2023/01/15 13:10:42;;;;;;;;;;;;;;;21.96;34.72;101250.01;105944;1286;72968;-82
2023/01/15 13:13:15;;;;;;;;;;;;;;;21.96;34.63;101248.73;105862;1290;75851;-82
2023/01/15 13:15:46;;;;;;;;;;;;;;;21.96;34.69;101253.21;105926;1286;61281;-82
2023/01/15 13:18:15;;;;;;;;;;;;;;;21.96;34.71;101248.55;105947;1286;61234;-82
2023/01/15 13:20:40;;;;;;;;;;;;;;;21.95;34.60;101250.95;105951;1286;73327;-82